sensor_id;sensor_type;location;lat;lon;timestamp;P1;durP1;ratioP1;P2;durP2;ratioP2
3841;SDS011;1936;47.074;15.336;2022-07-29T00:00:10;10.53;;;9.47;;
3841;SDS011;1936;47.074;15.336;2022-07-29T00:02:32;9.37;;;8.57;;
3841;SDS011;1936;47.074;15.336;2022-07-29T00:04:56;10.07;;;9.20;;
3841;SDS011;1936;47.074;15.336;2022-07-29T00:07:18;8.63;;;8.00;;
3841;SDS011;1936;47.074;15.336;2022-07-29T00:09:41;9.63;;;8.80;;
3841;SDS011;1936;47.074;15.336;2022-07-29T00:12:11;9.60;;;8.80;;
3841;SDS011;1936;47.074;15.336;2022-07-29T00:14:40;8.80;;;7.90;;
3841;SDS011;1936;47.074;15.336;2022-07-29T00:17:03;9.80;;;8.90;;
3841;SDS011;1936;47.074;15.336;2022-07-29T00:19:25;9.30;;;8.50;;
3841;SDS011;1936;47.074;15.336;2022-07-29T00:21:48;9.10;;;8.40;;
3841;SDS011;1936;47.074;15.336;2022-07-29T00:24:10;21.90;;;9.07;;
3841;SDS011;1936;47.074;15.336;2022-07-29T00:26:33;8.90;;;8.17;;
3841;SDS011;1936;47.074;15.336;2022-07-29T00:28:55;9.83;;;8.97;;
3841;SDS011;1936;47.074;15.336;2022-07-29T00:31:37;14.80;;;9.33;;
3841;SDS011;1936;47.074;15.336;2022-07-29T00:34:00;10.23;;;9.43;;
3841;SDS011;1936;47.074;15.336;2022-07-29T00:36:22;8.63;;;7.93;;
3841;SDS011;1936;47.074;15.336;2022-07-29T00:38:44;10.07;;;9.07;;
3841;SDS011;1936;47.074;15.336;2022-07-29T00:41:06;9.00;;;8.30;;
3841;SDS011;1936;47.074;15.336;2022-07-29T00:43:28;10.03;;;8.30;;
3841;SDS011;1936;47.074;15.336;2022-07-29T00:45:50;9.03;;;8.23;;
3841;SDS011;1936;47.074;15.336;2022-07-29T00:48:13;9.17;;;8.37;;
3841;SDS011;1936;47.074;15.336;2022-07-29T00:50:35;9.87;;;8.97;;
3841;SDS011;1936;47.074;15.336;2022-07-29T00:52:57;9.77;;;8.87;;
3841;SDS011;1936;47.074;15.336;2022-07-29T00:55:21;10.60;;;9.60;;
3841;SDS011;1936;47.074;15.336;2022-07-29T00:57:43;11.33;;;10.33;;
3841;SDS011;1936;47.074;15.336;2022-07-29T01:00:07;9.43;;;7.93;;
3841;SDS011;1936;47.074;15.336;2022-07-29T01:02:31;9.17;;;8.27;;
3841;SDS011;1936;47.074;15.336;2022-07-29T01:04:53;9.60;;;8.70;;
3841;SDS011;1936;47.074;15.336;2022-07-29T01:07:16;10.20;;;9.30;;
3841;SDS011;1936;47.074;15.336;2022-07-29T01:09:39;9.57;;;8.87;;
3841;SDS011;1936;47.074;15.336;2022-07-29T01:12:07;13.83;;;8.93;;
3841;SDS011;1936;47.074;15.336;2022-07-29T01:14:29;9.07;;;8.37;;
3841;SDS011;1936;47.074;15.336;2022-07-29T01:16:54;8.20;;;7.50;;
3841;SDS011;1936;47.074;15.336;2022-07-29T01:19:28;10.43;;;9.53;;
3841;SDS011;1936;47.074;15.336;2022-07-29T01:21:56;9.63;;;8.57;;
3841;SDS011;1936;47.074;15.336;2022-07-29T01:24:23;10.30;;;9.20;;
3841;SDS011;1936;47.074;15.336;2022-07-29T01:26:52;9.90;;;8.90;;
3841;SDS011;1936;47.074;15.336;2022-07-29T01:29:20;9.60;;;8.70;;
3841;SDS011;1936;47.074;15.336;2022-07-29T01:31:45;9.93;;;9.03;;
3841;SDS011;1936;47.074;15.336;2022-07-29T01:34:24;10.50;;;8.33;;
3841;SDS011;1936;47.074;15.336;2022-07-29T01:36:48;9.00;;;8.27;;
3841;SDS011;1936;47.074;15.336;2022-07-29T01:39:11;12.60;;;10.77;;
3841;SDS011;1936;47.074;15.336;2022-07-29T01:41:34;8.70;;;8.00;;
3841;SDS011;1936;47.074;15.336;2022-07-29T01:43:59;11.10;;;10.07;;
3841;SDS011;1936;47.074;15.336;2022-07-29T01:46:25;12.03;;;8.93;;
3841;SDS011;1936;47.074;15.336;2022-07-29T01:48:50;12.10;;;9.10;;
3841;SDS011;1936;47.074;15.336;2022-07-29T01:51:16;9.80;;;8.90;;
3841;SDS011;1936;47.074;15.336;2022-07-29T01:53:42;10.10;;;9.20;;
3841;SDS011;1936;47.074;15.336;2022-07-29T01:56:06;10.80;;;9.83;;
3841;SDS011;1936;47.074;15.336;2022-07-29T01:58:31;11.50;;;10.50;;
3841;SDS011;1936;47.074;15.336;2022-07-29T02:00:54;10.27;;;9.27;;
3841;SDS011;1936;47.074;15.336;2022-07-29T02:03:19;9.47;;;8.57;;
3841;SDS011;1936;47.074;15.336;2022-07-29T02:05:42;10.80;;;9.80;;
3841;SDS011;1936;47.074;15.336;2022-07-29T02:08:07;9.60;;;8.80;;
3841;SDS011;1936;47.074;15.336;2022-07-29T02:10:31;9.10;;;8.30;;
3841;SDS011;1936;47.074;15.336;2022-07-29T02:12:55;8.40;;;7.70;;
3841;SDS011;1936;47.074;15.336;2022-07-29T02:15:18;11.10;;;9.37;;
3841;SDS011;1936;47.074;15.336;2022-07-29T02:17:41;9.90;;;8.90;;
3841;SDS011;1936;47.074;15.336;2022-07-29T02:20:06;10.10;;;9.10;;
3841;SDS011;1936;47.074;15.336;2022-07-29T02:22:30;10.63;;;8.83;;
3841;SDS011;1936;47.074;15.336;2022-07-29T02:24:53;9.57;;;8.67;;
3841;SDS011;1936;47.074;15.336;2022-07-29T02:27:15;9.27;;;8.50;;
3841;SDS011;1936;47.074;15.336;2022-07-29T02:29:39;10.80;;;9.70;;
3841;SDS011;1936;47.074;15.336;2022-07-29T02:32:01;10.80;;;9.90;;
3841;SDS011;1936;47.074;15.336;2022-07-29T02:34:25;9.70;;;8.83;;
3841;SDS011;1936;47.074;15.336;2022-07-29T02:36:49;11.20;;;10.10;;
3841;SDS011;1936;47.074;15.336;2022-07-29T02:39:12;11.50;;;10.43;;
3841;SDS011;1936;47.074;15.336;2022-07-29T02:41:38;10.30;;;9.30;;
3841;SDS011;1936;47.074;15.336;2022-07-29T02:44:03;9.93;;;9.03;;
3841;SDS011;1936;47.074;15.336;2022-07-29T02:46:29;11.33;;;10.00;;
3841;SDS011;1936;47.074;15.336;2022-07-29T02:48:55;10.43;;;9.53;;
3841;SDS011;1936;47.074;15.336;2022-07-29T02:51:17;10.77;;;9.80;;
3841;SDS011;1936;47.074;15.336;2022-07-29T02:54:03;9.67;;;8.87;;
3841;SDS011;1936;47.074;15.336;2022-07-29T02:56:27;9.77;;;8.87;;
3841;SDS011;1936;47.074;15.336;2022-07-29T02:58:55;10.33;;;9.33;;
3841;SDS011;1936;47.074;15.336;2022-07-29T03:01:19;10.90;;;9.90;;
3841;SDS011;1936;47.074;15.336;2022-07-29T03:03:44;10.13;;;9.30;;
3841;SDS011;1936;47.074;15.336;2022-07-29T03:06:06;10.97;;;9.90;;
3841;SDS011;1936;47.074;15.336;2022-07-29T03:08:49;10.07;;;9.00;;
3841;SDS011;1936;47.074;15.336;2022-07-29T03:11:13;9.70;;;8.90;;
3841;SDS011;1936;47.074;15.336;2022-07-29T03:13:36;11.50;;;8.93;;
3841;SDS011;1936;47.074;15.336;2022-07-29T03:15:59;10.63;;;9.60;;
3841;SDS011;1936;47.074;15.336;2022-07-29T03:18:22;10.50;;;9.50;;
3841;SDS011;1936;47.074;15.336;2022-07-29T03:20:43;10.90;;;9.90;;
3841;SDS011;1936;47.074;15.336;2022-07-29T03:23:05;11.50;;;9.17;;
3841;SDS011;1936;47.074;15.336;2022-07-29T03:25:28;10.77;;;9.47;;
3841;SDS011;1936;47.074;15.336;2022-07-29T03:27:51;10.77;;;9.77;;
3841;SDS011;1936;47.074;15.336;2022-07-29T03:30:13;10.20;;;9.37;;
3841;SDS011;1936;47.074;15.336;2022-07-29T03:32:41;11.00;;;9.90;;
3841;SDS011;1936;47.074;15.336;2022-07-29T03:35:04;12.80;;;10.37;;
3841;SDS011;1936;47.074;15.336;2022-07-29T03:37:26;15.50;;;10.97;;
3841;SDS011;1936;47.074;15.336;2022-07-29T03:39:50;11.43;;;10.30;;
3841;SDS011;1936;47.074;15.336;2022-07-29T03:42:15;13.60;;;9.70;;
3841;SDS011;1936;47.074;15.336;2022-07-29T03:44:39;11.00;;;10.00;;
3841;SDS011;1936;47.074;15.336;2022-07-29T03:47:03;11.20;;;10.00;;
3841;SDS011;1936;47.074;15.336;2022-07-29T03:49:27;12.70;;;11.53;;
3841;SDS011;1936;47.074;15.336;2022-07-29T03:51:49;10.87;;;9.87;;
3841;SDS011;1936;47.074;15.336;2022-07-29T03:54:12;12.83;;;9.80;;
3841;SDS011;1936;47.074;15.336;2022-07-29T03:56:37;10.03;;;9.03;;
3841;SDS011;1936;47.074;15.336;2022-07-29T03:58:59;10.20;;;9.30;;
3841;SDS011;1936;47.074;15.336;2022-07-29T04:01:24;10.43;;;9.30;;
3841;SDS011;1936;47.074;15.336;2022-07-29T04:03:47;10.50;;;9.60;;
3841;SDS011;1936;47.074;15.336;2022-07-29T04:06:11;11.37;;;10.00;;
3841;SDS011;1936;47.074;15.336;2022-07-29T04:08:33;10.43;;;9.53;;
3841;SDS011;1936;47.074;15.336;2022-07-29T04:10:56;9.27;;;8.37;;
3841;SDS011;1936;47.074;15.336;2022-07-29T04:13:18;9.80;;;8.97;;
3841;SDS011;1936;47.074;15.336;2022-07-29T04:15:40;21.00;;;10.80;;
3841;SDS011;1936;47.074;15.336;2022-07-29T04:18:05;14.23;;;9.60;;
3841;SDS011;1936;47.074;15.336;2022-07-29T04:20:27;10.70;;;9.53;;
3841;SDS011;1936;47.074;15.336;2022-07-29T04:22:49;12.17;;;10.50;;
3841;SDS011;1936;47.074;15.336;2022-07-29T04:25:11;12.40;;;11.10;;
3841;SDS011;1936;47.074;15.336;2022-07-29T04:27:33;10.70;;;9.70;;
3841;SDS011;1936;47.074;15.336;2022-07-29T04:29:55;10.83;;;9.80;;
3841;SDS011;1936;47.074;15.336;2022-07-29T04:32:18;11.10;;;10.00;;
3841;SDS011;1936;47.074;15.336;2022-07-29T04:34:41;11.90;;;10.70;;
3841;SDS011;1936;47.074;15.336;2022-07-29T04:37:06;9.43;;;8.53;;
3841;SDS011;1936;47.074;15.336;2022-07-29T04:39:28;10.93;;;9.80;;
3841;SDS011;1936;47.074;15.336;2022-07-29T04:41:50;10.37;;;9.37;;
3841;SDS011;1936;47.074;15.336;2022-07-29T04:44:15;11.80;;;9.63;;
3841;SDS011;1936;47.074;15.336;2022-07-29T04:46:38;13.37;;;9.57;;
3841;SDS011;1936;47.074;15.336;2022-07-29T04:49:01;10.40;;;9.30;;
3841;SDS011;1936;47.074;15.336;2022-07-29T04:51:24;10.80;;;9.70;;
3841;SDS011;1936;47.074;15.336;2022-07-29T04:53:47;9.97;;;9.00;;
3841;SDS011;1936;47.074;15.336;2022-07-29T04:56:09;9.83;;;8.83;;
3841;SDS011;1936;47.074;15.336;2022-07-29T04:58:32;9.33;;;8.53;;
3841;SDS011;1936;47.074;15.336;2022-07-29T05:00:55;11.73;;;9.30;;
3841;SDS011;1936;47.074;15.336;2022-07-29T05:03:17;17.07;;;9.50;;
3841;SDS011;1936;47.074;15.336;2022-07-29T05:05:39;12.87;;;7.70;;
3841;SDS011;1936;47.074;15.336;2022-07-29T05:08:03;10.80;;;7.73;;
3841;SDS011;1936;47.074;15.336;2022-07-29T05:10:25;8.90;;;8.03;;
3841;SDS011;1936;47.074;15.336;2022-07-29T05:12:48;9.93;;;9.00;;
3841;SDS011;1936;47.074;15.336;2022-07-29T05:15:11;11.23;;;9.63;;
3841;SDS011;1936;47.074;15.336;2022-07-29T05:17:33;9.23;;;8.33;;
3841;SDS011;1936;47.074;15.336;2022-07-29T05:19:55;9.23;;;7.83;;
3841;SDS011;1936;47.074;15.336;2022-07-29T05:22:17;7.83;;;7.23;;
3841;SDS011;1936;47.074;15.336;2022-07-29T05:24:40;10.00;;;8.40;;
3841;SDS011;1936;47.074;15.336;2022-07-29T05:27:02;8.10;;;7.30;;
3841;SDS011;1936;47.074;15.336;2022-07-29T05:29:24;8.43;;;6.83;;
3841;SDS011;1936;47.074;15.336;2022-07-29T05:32:04;9.70;;;7.97;;
3841;SDS011;1936;47.074;15.336;2022-07-29T05:34:26;8.70;;;7.90;;
3841;SDS011;1936;47.074;15.336;2022-07-29T05:36:48;7.87;;;7.07;;
3841;SDS011;1936;47.074;15.336;2022-07-29T05:39:10;9.63;;;8.30;;
3841;SDS011;1936;47.074;15.336;2022-07-29T05:41:34;10.60;;;7.73;;
3841;SDS011;1936;47.074;15.336;2022-07-29T05:43:56;8.20;;;7.50;;
3841;SDS011;1936;47.074;15.336;2022-07-29T05:46:18;11.30;;;8.00;;
3841;SDS011;1936;47.074;15.336;2022-07-29T05:48:41;7.53;;;6.93;;
3841;SDS011;1936;47.074;15.336;2022-07-29T05:51:04;8.73;;;7.93;;
3841;SDS011;1936;47.074;15.336;2022-07-29T05:53:26;8.30;;;6.80;;
3841;SDS011;1936;47.074;15.336;2022-07-29T05:55:48;15.50;;;7.83;;
3841;SDS011;1936;47.074;15.336;2022-07-29T05:58:12;7.97;;;7.27;;
3841;SDS011;1936;47.074;15.336;2022-07-29T06:00:34;6.87;;;6.27;;
3841;SDS011;1936;47.074;15.336;2022-07-29T06:02:56;8.73;;;7.57;;
3841;SDS011;1936;47.074;15.336;2022-07-29T06:05:18;7.67;;;6.93;;
3841;SDS011;1936;47.074;15.336;2022-07-29T06:07:39;7.60;;;6.73;;
3841;SDS011;1936;47.074;15.336;2022-07-29T06:10:10;8.23;;;7.43;;
3841;SDS011;1936;47.074;15.336;2022-07-29T06:12:32;6.63;;;6.00;;
3841;SDS011;1936;47.074;15.336;2022-07-29T06:14:56;7.70;;;6.87;;
3841;SDS011;1936;47.074;15.336;2022-07-29T06:17:18;6.63;;;6.00;;
3841;SDS011;1936;47.074;15.336;2022-07-29T06:19:43;7.47;;;6.00;;
3841;SDS011;1936;47.074;15.336;2022-07-29T06:22:05;6.70;;;5.90;;
3841;SDS011;1936;47.074;15.336;2022-07-29T06:24:27;7.00;;;5.17;;
3841;SDS011;1936;47.074;15.336;2022-07-29T06:26:49;7.67;;;5.87;;
3841;SDS011;1936;47.074;15.336;2022-07-29T06:29:12;5.50;;;5.10;;
3841;SDS011;1936;47.074;15.336;2022-07-29T06:31:39;6.90;;;6.20;;
3841;SDS011;1936;47.074;15.336;2022-07-29T06:34:01;7.47;;;5.33;;
3841;SDS011;1936;47.074;15.336;2022-07-29T06:36:26;6.07;;;5.37;;
3841;SDS011;1936;47.074;15.336;2022-07-29T06:38:51;5.03;;;4.40;;
3841;SDS011;1936;47.074;15.336;2022-07-29T06:41:15;6.00;;;5.40;;
3841;SDS011;1936;47.074;15.336;2022-07-29T06:43:39;7.43;;;4.70;;
3841;SDS011;1936;47.074;15.336;2022-07-29T06:46:13;6.23;;;5.03;;
3841;SDS011;1936;47.074;15.336;2022-07-29T06:48:39;4.97;;;4.47;;
3841;SDS011;1936;47.074;15.336;2022-07-29T06:51:02;5.50;;;5.00;;
3841;SDS011;1936;47.074;15.336;2022-07-29T06:53:24;5.87;;;5.37;;
3841;SDS011;1936;47.074;15.336;2022-07-29T06:55:46;7.20;;;5.77;;
3841;SDS011;1936;47.074;15.336;2022-07-29T06:58:09;4.30;;;3.90;;
3841;SDS011;1936;47.074;15.336;2022-07-29T07:00:31;5.40;;;4.90;;
3841;SDS011;1936;47.074;15.336;2022-07-29T07:02:53;5.00;;;4.37;;
3841;SDS011;1936;47.074;15.336;2022-07-29T07:05:17;5.80;;;4.50;;
3841;SDS011;1936;47.074;15.336;2022-07-29T07:07:40;4.27;;;3.97;;
3841;SDS011;1936;47.074;15.336;2022-07-29T07:10:05;4.70;;;4.30;;
3841;SDS011;1936;47.074;15.336;2022-07-29T07:12:28;5.20;;;4.70;;
3841;SDS011;1936;47.074;15.336;2022-07-29T07:14:50;4.47;;;4.13;;
3841;SDS011;1936;47.074;15.336;2022-07-29T07:17:12;5.43;;;4.83;;
3841;SDS011;1936;47.074;15.336;2022-07-29T07:19:34;4.70;;;4.40;;
3841;SDS011;1936;47.074;15.336;2022-07-29T07:21:58;7.80;;;4.80;;
3841;SDS011;1936;47.074;15.336;2022-07-29T07:24:20;8.20;;;4.70;;
3841;SDS011;1936;47.074;15.336;2022-07-29T07:26:42;4.97;;;4.37;;
3841;SDS011;1936;47.074;15.336;2022-07-29T07:29:04;6.03;;;4.80;;
3841;SDS011;1936;47.074;15.336;2022-07-29T07:31:26;4.30;;;3.60;;
3841;SDS011;1936;47.074;15.336;2022-07-29T07:33:49;6.17;;;4.20;;
3841;SDS011;1936;47.074;15.336;2022-07-29T07:36:12;4.83;;;4.43;;
3841;SDS011;1936;47.074;15.336;2022-07-29T07:38:35;4.67;;;4.33;;
3841;SDS011;1936;47.074;15.336;2022-07-29T07:40:57;4.77;;;4.20;;
3841;SDS011;1936;47.074;15.336;2022-07-29T07:43:19;4.97;;;4.57;;
3841;SDS011;1936;47.074;15.336;2022-07-29T07:45:42;5.20;;;4.30;;
3841;SDS011;1936;47.074;15.336;2022-07-29T07:48:05;5.60;;;4.30;;
3841;SDS011;1936;47.074;15.336;2022-07-29T07:50:29;4.77;;;4.00;;
3841;SDS011;1936;47.074;15.336;2022-07-29T07:52:52;7.50;;;3.90;;
3841;SDS011;1936;47.074;15.336;2022-07-29T07:55:16;4.00;;;3.60;;
3841;SDS011;1936;47.074;15.336;2022-07-29T07:57:38;4.37;;;4.07;;
3841;SDS011;1936;47.074;15.336;2022-07-29T08:00:00;6.23;;;3.70;;
3841;SDS011;1936;47.074;15.336;2022-07-29T08:02:23;3.40;;;2.93;;
3841;SDS011;1936;47.074;15.336;2022-07-29T08:04:45;3.00;;;2.80;;
3841;SDS011;1936;47.074;15.336;2022-07-29T08:07:07;3.70;;;3.40;;
3841;SDS011;1936;47.074;15.336;2022-07-29T08:09:29;4.13;;;3.00;;
3841;SDS011;1936;47.074;15.336;2022-07-29T08:11:52;3.60;;;3.30;;
3841;SDS011;1936;47.074;15.336;2022-07-29T08:14:14;4.77;;;3.10;;
3841;SDS011;1936;47.074;15.336;2022-07-29T08:16:38;3.30;;;3.10;;
3841;SDS011;1936;47.074;15.336;2022-07-29T08:19:00;3.13;;;2.93;;
3841;SDS011;1936;47.074;15.336;2022-07-29T08:21:23;5.17;;;3.90;;
3841;SDS011;1936;47.074;15.336;2022-07-29T08:23:45;3.60;;;3.30;;
3841;SDS011;1936;47.074;15.336;2022-07-29T08:26:19;4.77;;;3.57;;
3841;SDS011;1936;47.074;15.336;2022-07-29T08:28:44;5.10;;;3.60;;
3841;SDS011;1936;47.074;15.336;2022-07-29T08:31:09;3.73;;;2.90;;
3841;SDS011;1936;47.074;15.336;2022-07-29T08:33:32;9.63;;;3.10;;
3841;SDS011;1936;47.074;15.336;2022-07-29T08:35:54;4.17;;;2.97;;
3841;SDS011;1936;47.074;15.336;2022-07-29T08:38:16;2.97;;;2.77;;
3841;SDS011;1936;47.074;15.336;2022-07-29T08:40:39;3.53;;;3.17;;
3841;SDS011;1936;47.074;15.336;2022-07-29T08:43:04;3.80;;;3.50;;
3841;SDS011;1936;47.074;15.336;2022-07-29T08:45:28;3.90;;;3.40;;
3841;SDS011;1936;47.074;15.336;2022-07-29T08:47:51;4.63;;;3.30;;
3841;SDS011;1936;47.074;15.336;2022-07-29T08:50:14;4.30;;;3.63;;
3841;SDS011;1936;47.074;15.336;2022-07-29T08:52:37;4.27;;;3.90;;
3841;SDS011;1936;47.074;15.336;2022-07-29T08:55:00;4.30;;;4.00;;
3841;SDS011;1936;47.074;15.336;2022-07-29T08:57:22;4.30;;;3.77;;
3841;SDS011;1936;47.074;15.336;2022-07-29T08:59:46;4.40;;;4.00;;
3841;SDS011;1936;47.074;15.336;2022-07-29T09:02:15;7.13;;;4.07;;
3841;SDS011;1936;47.074;15.336;2022-07-29T09:04:40;6.07;;;4.13;;
3841;SDS011;1936;47.074;15.336;2022-07-29T09:07:03;4.70;;;4.00;;
3841;SDS011;1936;47.074;15.336;2022-07-29T09:09:26;4.40;;;3.53;;
3841;SDS011;1936;47.074;15.336;2022-07-29T09:11:48;3.93;;;3.63;;
3841;SDS011;1936;47.074;15.336;2022-07-29T09:14:12;5.90;;;4.20;;
3841;SDS011;1936;47.074;15.336;2022-07-29T09:16:44;4.53;;;4.10;;
3841;SDS011;1936;47.074;15.336;2022-07-29T09:19:20;3.87;;;3.37;;
3841;SDS011;1936;47.074;15.336;2022-07-29T09:21:42;5.30;;;4.07;;
3841;SDS011;1936;47.074;15.336;2022-07-29T09:24:22;8.33;;;4.87;;
3841;SDS011;1936;47.074;15.336;2022-07-29T09:26:45;7.10;;;4.57;;
3841;SDS011;1936;47.074;15.336;2022-07-29T09:29:07;5.27;;;4.70;;
3841;SDS011;1936;47.074;15.336;2022-07-29T09:31:32;6.20;;;4.73;;
3841;SDS011;1936;47.074;15.336;2022-07-29T09:33:54;6.60;;;4.43;;
3841;SDS011;1936;47.074;15.336;2022-07-29T09:36:22;5.40;;;4.90;;
3841;SDS011;1936;47.074;15.336;2022-07-29T09:38:44;7.40;;;4.93;;
3841;SDS011;1936;47.074;15.336;2022-07-29T09:41:18;11.50;;;5.80;;
3841;SDS011;1936;47.074;15.336;2022-07-29T09:43:41;8.40;;;4.70;;
3841;SDS011;1936;47.074;15.336;2022-07-29T09:46:15;7.33;;;5.00;;
3841;SDS011;1936;47.074;15.336;2022-07-29T09:48:37;6.07;;;5.43;;
3841;SDS011;1936;47.074;15.336;2022-07-29T09:51:00;5.63;;;4.53;;
3841;SDS011;1936;47.074;15.336;2022-07-29T09:53:33;5.23;;;4.70;;
3841;SDS011;1936;47.074;15.336;2022-07-29T09:55:56;5.90;;;5.20;;
3841;SDS011;1936;47.074;15.336;2022-07-29T09:58:19;15.93;;;5.50;;
3841;SDS011;1936;47.074;15.336;2022-07-29T10:00:42;4.67;;;4.27;;
3841;SDS011;1936;47.074;15.336;2022-07-29T10:03:05;7.10;;;5.07;;
3841;SDS011;1936;47.074;15.336;2022-07-29T10:05:27;4.33;;;4.00;;
3841;SDS011;1936;47.074;15.336;2022-07-29T10:07:56;5.30;;;4.87;;
3841;SDS011;1936;47.074;15.336;2022-07-29T10:10:21;5.23;;;4.57;;
3841;SDS011;1936;47.074;15.336;2022-07-29T10:12:48;3.90;;;3.60;;
3841;SDS011;1936;47.074;15.336;2022-07-29T10:15:11;4.67;;;4.27;;
3841;SDS011;1936;47.074;15.336;2022-07-29T10:17:33;5.17;;;4.60;;
3841;SDS011;1936;47.074;15.336;2022-07-29T10:20:03;5.20;;;4.73;;
3841;SDS011;1936;47.074;15.336;2022-07-29T10:22:31;4.67;;;4.27;;
3841;SDS011;1936;47.074;15.336;2022-07-29T10:25:12;4.90;;;4.10;;
3841;SDS011;1936;47.074;15.336;2022-07-29T10:27:36;5.17;;;4.77;;
3841;SDS011;1936;47.074;15.336;2022-07-29T10:29:59;5.47;;;4.83;;
3841;SDS011;1936;47.074;15.336;2022-07-29T10:32:26;6.63;;;5.20;;
3841;SDS011;1936;47.074;15.336;2022-07-29T10:34:57;5.43;;;5.00;;
3841;SDS011;1936;47.074;15.336;2022-07-29T10:37:24;6.37;;;4.40;;
3841;SDS011;1936;47.074;15.336;2022-07-29T10:39:55;6.53;;;5.00;;
3841;SDS011;1936;47.074;15.336;2022-07-29T10:42:21;5.37;;;4.67;;
3841;SDS011;1936;47.074;15.336;2022-07-29T10:44:54;4.93;;;4.53;;
3841;SDS011;1936;47.074;15.336;2022-07-29T10:47:21;6.07;;;5.57;;
3841;SDS011;1936;47.074;15.336;2022-07-29T10:49:51;6.43;;;4.37;;
3841;SDS011;1936;47.074;15.336;2022-07-29T10:52:16;5.43;;;4.93;;
3841;SDS011;1936;47.074;15.336;2022-07-29T10:54:46;6.20;;;4.60;;
3841;SDS011;1936;47.074;15.336;2022-07-29T10:57:10;5.80;;;5.30;;
3841;SDS011;1936;47.074;15.336;2022-07-29T10:59:33;5.63;;;4.33;;
3841;SDS011;1936;47.074;15.336;2022-07-29T11:01:57;5.33;;;4.83;;
3841;SDS011;1936;47.074;15.336;2022-07-29T11:07:21;5.20;;;4.70;;
3841;SDS011;1936;47.074;15.336;2022-07-29T11:10:20;4.70;;;4.27;;
3841;SDS011;1936;47.074;15.336;2022-07-29T11:12:50;8.53;;;4.60;;
3841;SDS011;1936;47.074;15.336;2022-07-29T11:15:13;5.00;;;4.57;;
3841;SDS011;1936;47.074;15.336;2022-07-29T11:20:33;4.70;;;3.97;;
3841;SDS011;1936;47.074;15.336;2022-07-29T11:22:57;4.30;;;3.90;;
3841;SDS011;1936;47.074;15.336;2022-07-29T11:25:19;4.23;;;3.50;;
3841;SDS011;1936;47.074;15.336;2022-07-29T11:28:08;3.60;;;3.30;;
3841;SDS011;1936;47.074;15.336;2022-07-29T11:33:08;3.50;;;3.20;;
3841;SDS011;1936;47.074;15.336;2022-07-29T11:36:09;3.50;;;3.07;;
3841;SDS011;1936;47.074;15.336;2022-07-29T11:38:36;5.43;;;3.07;;
3841;SDS011;1936;47.074;15.336;2022-07-29T11:41:19;5.60;;;3.33;;
3841;SDS011;1936;47.074;15.336;2022-07-29T11:43:48;5.10;;;4.60;;
3841;SDS011;1936;47.074;15.336;2022-07-29T11:46:11;3.13;;;2.83;;
3841;SDS011;1936;47.074;15.336;2022-07-29T11:48:34;7.03;;;4.00;;
3841;SDS011;1936;47.074;15.336;2022-07-29T11:50:58;5.93;;;3.67;;
3841;SDS011;1936;47.074;15.336;2022-07-29T11:53:23;4.20;;;3.80;;
3841;SDS011;1936;47.074;15.336;2022-07-29T11:55:54;5.00;;;4.03;;
3841;SDS011;1936;47.074;15.336;2022-07-29T11:58:20;4.67;;;4.23;;
3841;SDS011;1936;47.074;15.336;2022-07-29T12:00:45;4.47;;;4.13;;
3841;SDS011;1936;47.074;15.336;2022-07-29T12:03:09;4.77;;;4.27;;
3841;SDS011;1936;47.074;15.336;2022-07-29T12:05:35;4.47;;;4.07;;
3841;SDS011;1936;47.074;15.336;2022-07-29T12:08:11;4.83;;;4.43;;
3841;SDS011;1936;47.074;15.336;2022-07-29T12:10:35;3.93;;;3.63;;
3841;SDS011;1936;47.074;15.336;2022-07-29T12:12:57;5.57;;;4.20;;
3841;SDS011;1936;47.074;15.336;2022-07-29T12:15:20;4.93;;;4.47;;
3841;SDS011;1936;47.074;15.336;2022-07-29T12:18:10;4.50;;;4.10;;
3841;SDS011;1936;47.074;15.336;2022-07-29T12:20:33;4.73;;;4.33;;
3841;SDS011;1936;47.074;15.336;2022-07-29T12:22:56;5.03;;;4.53;;
3841;SDS011;1936;47.074;15.336;2022-07-29T12:25:18;5.90;;;3.90;;
3841;SDS011;1936;47.074;15.336;2022-07-29T12:28:01;5.40;;;4.17;;
3841;SDS011;1936;47.074;15.336;2022-07-29T12:30:23;4.13;;;3.73;;
3841;SDS011;1936;47.074;15.336;2022-07-29T12:32:57;4.40;;;4.00;;
3841;SDS011;1936;47.074;15.336;2022-07-29T12:35:19;4.93;;;3.93;;
3841;SDS011;1936;47.074;15.336;2022-07-29T12:37:42;5.73;;;4.73;;
3841;SDS011;1936;47.074;15.336;2022-07-29T12:40:05;7.50;;;4.17;;
3841;SDS011;1936;47.074;15.336;2022-07-29T12:42:28;5.10;;;4.60;;
3841;SDS011;1936;47.074;15.336;2022-07-29T12:44:52;5.93;;;5.43;;
3841;SDS011;1936;47.074;15.336;2022-07-29T12:47:14;6.93;;;5.00;;
3841;SDS011;1936;47.074;15.336;2022-07-29T12:49:38;6.63;;;4.97;;
3841;SDS011;1936;47.074;15.336;2022-07-29T12:52:00;6.83;;;5.50;;
3841;SDS011;1936;47.074;15.336;2022-07-29T12:54:46;6.17;;;5.53;;
3841;SDS011;1936;47.074;15.336;2022-07-29T12:57:10;5.70;;;5.20;;
3841;SDS011;1936;47.074;15.336;2022-07-29T12:59:39;6.37;;;5.50;;
3841;SDS011;1936;47.074;15.336;2022-07-29T13:02:02;6.80;;;4.87;;
3841;SDS011;1936;47.074;15.336;2022-07-29T13:04:25;4.83;;;4.53;;
3841;SDS011;1936;47.074;15.336;2022-07-29T13:06:47;6.10;;;5.60;;
3841;SDS011;1936;47.074;15.336;2022-07-29T13:09:10;6.47;;;5.50;;
3841;SDS011;1936;47.074;15.336;2022-07-29T13:11:33;5.73;;;5.23;;
3841;SDS011;1936;47.074;15.336;2022-07-29T13:13:55;6.47;;;4.87;;
3841;SDS011;1936;47.074;15.336;2022-07-29T13:16:26;4.50;;;3.40;;
3841;SDS011;1936;47.074;15.336;2022-07-29T13:18:54;4.17;;;3.83;;
3841;SDS011;1936;47.074;15.336;2022-07-29T13:21:24;3.87;;;3.57;;
3841;SDS011;1936;47.074;15.336;2022-07-29T13:23:46;3.77;;;3.40;;
3841;SDS011;1936;47.074;15.336;2022-07-29T13:26:09;4.30;;;3.80;;
3841;SDS011;1936;47.074;15.336;2022-07-29T13:28:32;5.23;;;3.97;;
3841;SDS011;1936;47.074;15.336;2022-07-29T13:30:54;4.67;;;3.30;;
3841;SDS011;1936;47.074;15.336;2022-07-29T13:33:16;5.43;;;4.27;;
3841;SDS011;1936;47.074;15.336;2022-07-29T13:35:40;4.90;;;4.40;;
3841;SDS011;1936;47.074;15.336;2022-07-29T13:38:02;4.40;;;4.03;;
3841;SDS011;1936;47.074;15.336;2022-07-29T13:40:25;5.23;;;3.87;;
3841;SDS011;1936;47.074;15.336;2022-07-29T13:42:49;3.80;;;3.50;;
3841;SDS011;1936;47.074;15.336;2022-07-29T13:45:11;4.57;;;4.17;;
3841;SDS011;1936;47.074;15.336;2022-07-29T13:47:33;3.97;;;3.67;;
3841;SDS011;1936;47.074;15.336;2022-07-29T13:49:55;5.20;;;3.73;;
3841;SDS011;1936;47.074;15.336;2022-07-29T13:52:19;6.43;;;3.20;;
3841;SDS011;1936;47.074;15.336;2022-07-29T13:54:42;4.33;;;3.80;;
3841;SDS011;1936;47.074;15.336;2022-07-29T13:57:05;7.00;;;3.20;;
3841;SDS011;1936;47.074;15.336;2022-07-29T13:59:27;4.83;;;3.50;;
3841;SDS011;1936;47.074;15.336;2022-07-29T14:01:49;4.30;;;3.90;;
3841;SDS011;1936;47.074;15.336;2022-07-29T14:04:11;3.20;;;2.93;;
3841;SDS011;1936;47.074;15.336;2022-07-29T14:06:33;5.83;;;4.10;;
3841;SDS011;1936;47.074;15.336;2022-07-29T14:09:00;3.87;;;3.57;;
3841;SDS011;1936;47.074;15.336;2022-07-29T14:11:22;5.67;;;3.97;;
3841;SDS011;1936;47.074;15.336;2022-07-29T14:13:45;4.00;;;3.63;;
3841;SDS011;1936;47.074;15.336;2022-07-29T14:16:07;4.00;;;3.60;;
3841;SDS011;1936;47.074;15.336;2022-07-29T14:18:29;4.10;;;3.80;;
3841;SDS011;1936;47.074;15.336;2022-07-29T14:20:52;4.10;;;3.80;;
3841;SDS011;1936;47.074;15.336;2022-07-29T14:23:14;4.23;;;3.53;;
3841;SDS011;1936;47.074;15.336;2022-07-29T14:25:40;4.33;;;3.90;;
3841;SDS011;1936;47.074;15.336;2022-07-29T14:28:04;3.80;;;3.50;;
3841;SDS011;1936;47.074;15.336;2022-07-29T14:30:27;3.87;;;3.53;;
3841;SDS011;1936;47.074;15.336;2022-07-29T14:32:48;5.30;;;4.07;;
3841;SDS011;1936;47.074;15.336;2022-07-29T14:35:11;5.90;;;3.87;;
3841;SDS011;1936;47.074;15.336;2022-07-29T14:37:33;5.17;;;3.83;;
3841;SDS011;1936;47.074;15.336;2022-07-29T14:39:59;4.68;;;4.10;;
3841;SDS011;1936;47.074;15.336;2022-07-29T14:42:25;4.67;;;4.27;;
3841;SDS011;1936;47.074;15.336;2022-07-29T14:44:47;8.37;;;4.17;;
3841;SDS011;1936;47.074;15.336;2022-07-29T14:47:09;4.60;;;3.37;;
3841;SDS011;1936;47.074;15.336;2022-07-29T14:49:31;4.20;;;3.80;;